Accueil
METAR-TAF:

METAR-TAF

Aéroports :

Aéroport Platov

Rostov-sur-le-Don, Russie

latitude: 47-29-38N, longitude: 039-55-29E, altitude: 65 m

Observation

Le bulletin a été fait il y a 38 minutes, à 08:00 UTC
Vent 6 kt de est, variant entre nord-est et est/sud-est
Température 17°C
Humidité 22%
Pression 1027 hPa
Visibilité 10 km ou plus
pas de nuages en-dessous de 1500 mètres et pas de cumulonimbus.

METAR: URRP 230800Z 09003MPS 050V120 CAVOK 17/M05 Q1027 R05/CLRD70 NOSIG RMK QFE766/1021

Heure: 11:38 (08:38 UTC)

Prévision

Le bulletin a été fait il y a 3 heures et 43 minutes, à 04:55 UTC
Prévision valable du 23 à 06 UTC au 24 à 06 UTC
Vent 6 kt de nord-ouest avec des rafales jusqu'à 17 kt
Visibilité 10 km ou plus
Nuages épars à une hauteur de 2000 ft
Temporairement
du 23 à 06 UTC au 23 à 12 UTC
Vent 6 kt de nord/nord-est avec des rafales jusqu'à 16 kt

TAF: URRP 230455Z 2306/2406 32003G09MPS 9999 SCT020 TEMPO 2306/2312 03003G08MPS

Observations et prévisions météorologiques de plus de 4000 aéroports (messages METAR et TAF).

Les stations disponibles sont représentées par des disques jaunes et rouges sur la carte.

Passer la souris dessus pour voir le nom de la station.

Cliquer dessus pour voir les observations et prévisions météorologiques.

Pour changer de carte: cliquez sur les boutons verts avec une croix noire pour zoomer, sur le bouton vert avec un tiret pour effectuer un zoom arrière, ou sur les flèches vertes pour les cartes adjacentes.


METAR-TAF: